sensor_id;sensor_type;location;lat;lon;timestamp;pressure;altitude;pressure_sealevel;temperature;humidity
50774;BME280;36745;48.544;8.918;2022-08-23T00:02:51;97273.91;;;15.02;64.08
50774;BME280;36745;48.544;8.918;2022-08-23T00:05:52;97275.47;;;15.03;64.06
50774;BME280;36745;48.544;8.918;2022-08-23T00:08:53;97266.53;;;14.99;64.48
50774;BME280;36745;48.544;8.918;2022-08-23T00:12:16;97266.25;;;14.97;64.24
50774;BME280;36745;48.544;8.918;2022-08-23T00:15:19;97261.34;;;14.92;64.30
50774;BME280;36745;48.544;8.918;2022-08-23T00:18:20;97264.09;;;14.92;64.88
50774;BME280;36745;48.544;8.918;2022-08-23T00:21:22;97258.09;;;14.93;64.69
50774;BME280;36745;48.544;8.918;2022-08-23T00:24:24;97263.19;;;14.95;64.72
50774;BME280;36745;48.544;8.918;2022-08-23T00:27:25;97259.19;;;14.87;64.72
50774;BME280;36745;48.544;8.918;2022-08-23T00:30:27;97254.59;;;14.84;64.97
50774;BME280;36745;48.544;8.918;2022-08-23T00:33:28;97263.25;;;14.77;64.83
50774;BME280;36745;48.544;8.918;2022-08-23T00:36:29;97252.22;;;14.58;65.47
50774;BME280;36745;48.544;8.918;2022-08-23T00:39:30;97251.63;;;14.54;65.81
50774;BME280;36745;48.544;8.918;2022-08-23T00:42:42;97249.63;;;14.55;65.47
50774;BME280;36745;48.544;8.918;2022-08-23T00:50:32;97255.06;;;14.49;65.58
50774;BME280;36745;48.544;8.918;2022-08-23T00:53:36;97251.66;;;14.36;66.35
50774;BME280;36745;48.544;8.918;2022-08-23T00:56:38;97252.78;;;14.39;66.58
50774;BME280;36745;48.544;8.918;2022-08-23T00:59:40;97246.59;;;14.44;66.45
50774;BME280;36745;48.544;8.918;2022-08-23T01:02:41;97254.78;;;14.38;65.90
50774;BME280;36745;48.544;8.918;2022-08-23T01:05:51;97243.09;;;14.25;66.48
50774;BME280;36745;48.544;8.918;2022-08-23T01:09:00;97245.25;;;14.21;66.96
50774;BME280;36745;48.544;8.918;2022-08-23T01:12:18;97252.66;;;14.24;66.61
50774;BME280;36745;48.544;8.918;2022-08-23T01:15:29;97249.09;;;14.23;67.01
50774;BME280;36745;48.544;8.918;2022-08-23T01:18:32;97250.63;;;14.24;66.79
50774;BME280;36745;48.544;8.918;2022-08-23T01:21:38;97258.97;;;14.15;67.40
50774;BME280;36745;48.544;8.918;2022-08-23T01:24:40;97253.41;;;14.15;66.94
50774;BME280;36745;48.544;8.918;2022-08-23T01:27:43;97259.91;;;14.12;67.23
50774;BME280;36745;48.544;8.918;2022-08-23T01:30:47;97260.38;;;14.02;67.64
50774;BME280;36745;48.544;8.918;2022-08-23T01:33:56;97263.16;;;14.02;67.70
50774;BME280;36745;48.544;8.918;2022-08-23T01:36:58;97251.94;;;13.96;67.78
50774;BME280;36745;48.544;8.918;2022-08-23T01:39:59;97261.31;;;13.99;67.46
50774;BME280;36745;48.544;8.918;2022-08-23T01:43:03;97263.16;;;13.83;67.53
50774;BME280;36745;48.544;8.918;2022-08-23T01:46:13;97268.88;;;13.71;68.59
50774;BME280;36745;48.544;8.918;2022-08-23T01:49:14;97270.09;;;13.79;68.49
50774;BME280;36745;48.544;8.918;2022-08-23T01:52:16;97270.56;;;13.86;68.01
50774;BME280;36745;48.544;8.918;2022-08-23T01:55:17;97265.03;;;13.86;67.06
50774;BME280;36745;48.544;8.918;2022-08-23T01:58:19;97265.34;;;13.61;67.83
50774;BME280;36745;48.544;8.918;2022-08-23T02:01:22;97269.03;;;13.49;68.83
50774;BME280;36745;48.544;8.918;2022-08-23T02:04:26;97268.72;;;13.47;69.25
50774;BME280;36745;48.544;8.918;2022-08-23T02:07:30;97273.66;;;13.52;69.11
50774;BME280;36745;48.544;8.918;2022-08-23T02:10:31;97265.94;;;13.56;69.06
50774;BME280;36745;48.544;8.918;2022-08-23T02:13:32;97258.25;;;13.51;68.70
50774;BME280;36745;48.544;8.918;2022-08-23T02:16:53;97263.78;;;13.33;69.21
50774;BME280;36745;48.544;8.918;2022-08-23T02:19:58;97263.31;;;13.34;69.24
50774;BME280;36745;48.544;8.918;2022-08-23T02:22:59;97265.91;;;13.29;69.59
50774;BME280;36745;48.544;8.918;2022-08-23T02:26:00;97273.94;;;13.27;69.46
50774;BME280;36745;48.544;8.918;2022-08-23T02:29:02;97274.84;;;13.24;69.65
50774;BME280;36745;48.544;8.918;2022-08-23T02:32:03;97269.63;;;13.17;70.04
50774;BME280;36745;48.544;8.918;2022-08-23T02:35:04;97276.81;;;13.14;70.17
50774;BME280;36745;48.544;8.918;2022-08-23T02:38:10;97279.28;;;13.12;70.55
50774;BME280;36745;48.544;8.918;2022-08-23T02:41:12;97286.22;;;13.17;70.83
50774;BME280;36745;48.544;8.918;2022-08-23T02:44:13;97272.69;;;13.19;70.09
50774;BME280;36745;48.544;8.918;2022-08-23T02:47:14;97283.75;;;13.19;69.63
50774;BME280;36745;48.544;8.918;2022-08-23T02:50:15;97285.09;;;13.05;70.68
50774;BME280;36745;48.544;8.918;2022-08-23T02:53:16;97286.13;;;12.98;71.46
50774;BME280;36745;48.544;8.918;2022-08-23T02:56:20;97286.31;;;13.04;70.79
50774;BME280;36745;48.544;8.918;2022-08-23T02:59:21;97276.63;;;12.99;70.45
50774;BME280;36745;48.544;8.918;2022-08-23T03:02:24;97283.66;;;12.91;71.29
50774;BME280;36745;48.544;8.918;2022-08-23T03:05:25;97286.41;;;12.91;71.18
50774;BME280;36745;48.544;8.918;2022-08-23T03:08:26;97293.69;;;13.07;71.20
50774;BME280;36745;48.544;8.918;2022-08-23T03:11:27;97297.06;;;13.02;70.85
50774;BME280;36745;48.544;8.918;2022-08-23T03:14:28;97303.94;;;12.88;71.65
50774;BME280;36745;48.544;8.918;2022-08-23T03:17:32;97301.69;;;13.05;71.24
50774;BME280;36745;48.544;8.918;2022-08-23T03:20:33;97301.28;;;13.16;71.27
50774;BME280;36745;48.544;8.918;2022-08-23T03:23:35;97304.66;;;13.20;71.14
50774;BME280;36745;48.544;8.918;2022-08-23T03:26:41;97311.75;;;13.12;70.90
50774;BME280;36745;48.544;8.918;2022-08-23T03:29:43;97303.81;;;13.01;71.50
50774;BME280;36745;48.544;8.918;2022-08-23T03:32:44;97300.28;;;13.00;70.93
50774;BME280;36745;48.544;8.918;2022-08-23T03:35:45;97303.78;;;12.92;71.61
50774;BME280;36745;48.544;8.918;2022-08-23T03:38:49;97302.56;;;12.93;71.94
50774;BME280;36745;48.544;8.918;2022-08-23T03:41:53;97300.56;;;12.93;71.63
50774;BME280;36745;48.544;8.918;2022-08-23T03:44:57;97302.84;;;12.86;72.10
50774;BME280;36745;48.544;8.918;2022-08-23T03:47:57;97309.28;;;12.83;72.20
50774;BME280;36745;48.544;8.918;2022-08-23T03:50:59;97313.47;;;12.87;71.73
50774;BME280;36745;48.544;8.918;2022-08-23T03:54:00;97310.38;;;12.85;71.28
50774;BME280;36745;48.544;8.918;2022-08-23T03:57:05;97311.72;;;12.72;72.00
50774;BME280;36745;48.544;8.918;2022-08-23T04:00:09;97317.25;;;12.72;71.82
50774;BME280;36745;48.544;8.918;2022-08-23T04:03:10;97315.94;;;12.54;72.01
50774;BME280;36745;48.544;8.918;2022-08-23T04:06:11;97322.97;;;12.46;71.58
50774;BME280;36745;48.544;8.918;2022-08-23T04:09:13;97325.53;;;12.41;72.37
50774;BME280;36745;48.544;8.918;2022-08-23T04:12:15;97324.88;;;12.37;72.53
50774;BME280;36745;48.544;8.918;2022-08-23T04:15:15;97324.25;;;12.33;72.84
50774;BME280;36745;48.544;8.918;2022-08-23T04:18:18;97326.97;;;12.24;73.05
50774;BME280;36745;48.544;8.918;2022-08-23T04:21:20;97322.66;;;12.23;72.93
50774;BME280;36745;48.544;8.918;2022-08-23T04:24:25;97324.50;;;12.26;72.15
50774;BME280;36745;48.544;8.918;2022-08-23T04:27:26;97330.19;;;12.22;72.59
50774;BME280;36745;48.544;8.918;2022-08-23T04:30:27;97338.91;;;12.20;73.61
50774;BME280;36745;48.544;8.918;2022-08-23T04:33:30;97343.84;;;12.26;72.87
50774;BME280;36745;48.544;8.918;2022-08-23T04:36:35;97349.97;;;12.20;73.33
50774;BME280;36745;48.544;8.918;2022-08-23T04:39:37;97347.53;;;12.23;74.00
50774;BME280;36745;48.544;8.918;2022-08-23T04:42:56;97356.22;;;12.34;73.03
50774;BME280;36745;48.544;8.918;2022-08-23T04:45:57;97356.94;;;12.25;73.08
50774;BME280;36745;48.544;8.918;2022-08-23T04:48:58;97359.16;;;12.17;73.10
50774;BME280;36745;48.544;8.918;2022-08-23T04:52:00;97365.50;;;12.05;73.93
50774;BME280;36745;48.544;8.918;2022-08-23T04:55:04;97357.66;;;12.26;73.99
50774;BME280;36745;48.544;8.918;2022-08-23T04:58:05;97359.81;;;12.22;73.93
50774;BME280;36745;48.544;8.918;2022-08-23T05:01:08;97356.16;;;12.25;73.71
50774;BME280;36745;48.544;8.918;2022-08-23T05:04:10;97364.75;;;12.27;73.38
50774;BME280;36745;48.544;8.918;2022-08-23T05:07:11;97377.03;;;12.26;73.48
50774;BME280;36745;48.544;8.918;2022-08-23T05:10:14;97371.13;;;12.14;74.58
50774;BME280;36745;48.544;8.918;2022-08-23T05:13:16;97370.94;;;12.31;74.50
50774;BME280;36745;48.544;8.918;2022-08-23T05:16:17;97378.69;;;12.45;73.54
50774;BME280;36745;48.544;8.918;2022-08-23T05:19:20;97376.97;;;12.38;74.86
50774;BME280;36745;48.544;8.918;2022-08-23T05:22:24;97378.25;;;12.46;74.86
50774;BME280;36745;48.544;8.918;2022-08-23T05:25:25;97378.50;;;12.61;74.83
50774;BME280;36745;48.544;8.918;2022-08-23T05:28:47;97377.50;;;13.48;75.65
50774;BME280;36745;48.544;8.918;2022-08-23T05:31:49;97384.81;;;14.09;75.34
50774;BME280;36745;48.544;8.918;2022-08-23T05:34:50;97384.75;;;14.63;74.30
50774;BME280;36745;48.544;8.918;2022-08-23T05:37:53;97385.16;;;14.98;73.38
50774;BME280;36745;48.544;8.918;2022-08-23T05:40:55;97388.91;;;15.19;72.31
50774;BME280;36745;48.544;8.918;2022-08-23T05:44:00;97395.19;;;15.38;71.91
50774;BME280;36745;48.544;8.918;2022-08-23T05:47:01;97393.03;;;15.66;71.43
50774;BME280;36745;48.544;8.918;2022-08-23T05:50:02;97392.34;;;15.80;70.75
50774;BME280;36745;48.544;8.918;2022-08-23T05:53:03;97389.13;;;15.96;70.65
50774;BME280;36745;48.544;8.918;2022-08-23T05:56:19;97394.41;;;16.32;70.59
50774;BME280;36745;48.544;8.918;2022-08-23T05:59:21;97399.16;;;16.56;69.54
50774;BME280;36745;48.544;8.918;2022-08-23T06:02:25;97405.72;;;16.67;69.59
50774;BME280;36745;48.544;8.918;2022-08-23T06:05:26;97401.09;;;16.94;69.22
50774;BME280;36745;48.544;8.918;2022-08-23T06:08:27;97404.44;;;17.12;68.99
50774;BME280;36745;48.544;8.918;2022-08-23T06:11:31;97401.16;;;17.29;68.55
50774;BME280;36745;48.544;8.918;2022-08-23T06:14:34;97404.50;;;17.47;68.11
50774;BME280;36745;48.544;8.918;2022-08-23T06:17:35;97410.69;;;17.57;67.75
50774;BME280;36745;48.544;8.918;2022-08-23T06:20:38;97404.94;;;17.60;66.97
50774;BME280;36745;48.544;8.918;2022-08-23T06:23:40;97403.16;;;17.43;67.10
50774;BME280;36745;48.544;8.918;2022-08-23T06:26:43;97407.03;;;17.66;67.21
50774;BME280;36745;48.544;8.918;2022-08-23T06:29:44;97409.09;;;17.85;66.83
50774;BME280;36745;48.544;8.918;2022-08-23T06:32:45;97407.72;;;17.95;67.03
50774;BME280;36745;48.544;8.918;2022-08-23T06:35:47;97410.91;;;18.09;66.29
50774;BME280;36745;48.544;8.918;2022-08-23T06:38:48;97415.84;;;18.19;66.53
50774;BME280;36745;48.544;8.918;2022-08-23T06:41:51;97417.34;;;18.35;66.80
50774;BME280;36745;48.544;8.918;2022-08-23T06:44:52;97414.53;;;18.55;66.35
50774;BME280;36745;48.544;8.918;2022-08-23T06:47:53;97416.41;;;18.64;65.89
50774;BME280;36745;48.544;8.918;2022-08-23T06:50:54;97412.94;;;19.00;66.36
50774;BME280;36745;48.544;8.918;2022-08-23T06:54:01;97420.31;;;19.29;65.41
50774;BME280;36745;48.544;8.918;2022-08-23T06:57:02;97412.28;;;19.42;65.22
50774;BME280;36745;48.544;8.918;2022-08-23T07:00:03;97416.97;;;19.56;65.07
50774;BME280;36745;48.544;8.918;2022-08-23T07:03:04;97412.50;;;19.70;65.08
50774;BME280;36745;48.544;8.918;2022-08-23T07:06:08;97412.03;;;19.83;64.09
50774;BME280;36745;48.544;8.918;2022-08-23T07:09:09;97412.38;;;19.96;64.46
50774;BME280;36745;48.544;8.918;2022-08-23T07:12:10;97421.88;;;20.15;64.20
50774;BME280;36745;48.544;8.918;2022-08-23T07:15:11;97426.00;;;20.25;63.77
50774;BME280;36745;48.544;8.918;2022-08-23T07:18:12;97424.06;;;20.42;63.91
50774;BME280;36745;48.544;8.918;2022-08-23T07:21:14;97430.75;;;20.62;63.83
50774;BME280;36745;48.544;8.918;2022-08-23T07:24:19;97432.81;;;20.72;63.44
50774;BME280;36745;48.544;8.918;2022-08-23T07:27:20;97432.31;;;20.85;63.19
50774;BME280;36745;48.544;8.918;2022-08-23T07:30:21;97434.91;;;20.94;62.34
50774;BME280;36745;48.544;8.918;2022-08-23T07:33:22;97427.25;;;21.11;62.75
50774;BME280;36745;48.544;8.918;2022-08-23T07:36:24;97433.66;;;21.17;61.85
50774;BME280;36745;48.544;8.918;2022-08-23T07:39:26;97426.00;;;21.18;61.54
50774;BME280;36745;48.544;8.918;2022-08-23T07:42:27;97434.16;;;21.32;61.73
50774;BME280;36745;48.544;8.918;2022-08-23T07:45:28;97434.69;;;21.48;61.67
50774;BME280;36745;48.544;8.918;2022-08-23T07:48:29;97431.88;;;21.59;61.36
50774;BME280;36745;48.544;8.918;2022-08-23T07:51:32;97437.97;;;21.74;61.29
50774;BME280;36745;48.544;8.918;2022-08-23T07:54:33;97426.94;;;21.93;61.04
50774;BME280;36745;48.544;8.918;2022-08-23T07:57:34;97422.34;;;22.12;60.52
50774;BME280;36745;48.544;8.918;2022-08-23T08:00:35;97423.31;;;22.20;59.88
50774;BME280;36745;48.544;8.918;2022-08-23T08:03:39;97421.22;;;22.37;60.05
50774;BME280;36745;48.544;8.918;2022-08-23T08:06:44;97430.63;;;22.51;59.75
50774;BME280;36745;48.544;8.918;2022-08-23T08:09:46;97431.31;;;22.63;59.62
50774;BME280;36745;48.544;8.918;2022-08-23T08:12:47;97432.81;;;22.75;59.18
50774;BME280;36745;48.544;8.918;2022-08-23T08:15:48;97429.22;;;22.69;57.96
50774;BME280;36745;48.544;8.918;2022-08-23T08:18:56;97433.19;;;22.49;56.41
50774;BME280;36745;48.544;8.918;2022-08-23T08:21:57;97435.19;;;22.54;57.43
50774;BME280;36745;48.544;8.918;2022-08-23T08:24:58;97433.25;;;22.84;57.37
50774;BME280;36745;48.544;8.918;2022-08-23T08:27:59;97436.41;;;23.11;57.48
50774;BME280;36745;48.544;8.918;2022-08-23T08:31:01;97439.84;;;23.28;56.58
50774;BME280;36745;48.544;8.918;2022-08-23T08:34:02;97434.97;;;23.34;56.07
50774;BME280;36745;48.544;8.918;2022-08-23T08:37:03;97449.09;;;23.23;54.79
50774;BME280;36745;48.544;8.918;2022-08-23T08:40:05;97433.88;;;23.42;54.77
50774;BME280;36745;48.544;8.918;2022-08-23T08:43:35;97434.09;;;23.50;55.15
50774;BME280;36745;48.544;8.918;2022-08-23T08:46:43;97436.34;;;23.81;54.90
50774;BME280;36745;48.544;8.918;2022-08-23T08:49:55;97442.22;;;23.83;53.70
50774;BME280;36745;48.544;8.918;2022-08-23T08:53:09;97446.34;;;24.07;54.12
50774;BME280;36745;48.544;8.918;2022-08-23T08:56:18;97453.13;;;24.22;53.46
50774;BME280;36745;48.544;8.918;2022-08-23T08:59:30;97450.63;;;24.38;53.14
50774;BME280;36745;48.544;8.918;2022-08-23T09:02:36;97449.97;;;24.50;53.15
50774;BME280;36745;48.544;8.918;2022-08-23T09:06:00;97447.91;;;24.70;52.48
50774;BME280;36745;48.544;8.918;2022-08-23T09:09:20;97439.53;;;24.83;51.75
50774;BME280;36745;48.544;8.918;2022-08-23T09:12:49;97445.06;;;24.94;51.12
50774;BME280;36745;48.544;8.918;2022-08-23T09:19:20;97443.56;;;25.25;50.89
50774;BME280;36745;48.544;8.918;2022-08-23T09:22:43;97443.50;;;25.43;50.01
50774;BME280;36745;48.544;8.918;2022-08-23T09:25:53;97437.53;;;25.66;49.32
50774;BME280;36745;48.544;8.918;2022-08-23T09:29:02;97442.97;;;25.77;46.90
50774;BME280;36745;48.544;8.918;2022-08-23T09:32:06;97438.84;;;25.78;46.73
50774;BME280;36745;48.544;8.918;2022-08-23T09:41:18;97430.53;;;26.12;45.65
50774;BME280;36745;48.544;8.918;2022-08-23T09:47:37;97428.78;;;26.22;44.30
50774;BME280;36745;48.544;8.918;2022-08-23T09:50:50;97433.94;;;26.23;43.20
50774;BME280;36745;48.544;8.918;2022-08-23T09:57:08;97439.34;;;26.48;42.14
50774;BME280;36745;48.544;8.918;2022-08-23T10:03:26;97425.34;;;26.89;41.13
50774;BME280;36745;48.544;8.918;2022-08-23T10:06:30;97426.00;;;27.16;40.95
50774;BME280;36745;48.544;8.918;2022-08-23T10:09:36;97413.88;;;27.49;39.90
50774;BME280;36745;48.544;8.918;2022-08-23T10:12:37;97419.78;;;27.72;39.59
50774;BME280;36745;48.544;8.918;2022-08-23T10:15:53;97421.47;;;27.96;39.74
50774;BME280;36745;48.544;8.918;2022-08-23T10:22:44;97422.50;;;28.06;37.60
50774;BME280;36745;48.544;8.918;2022-08-23T10:25:57;97415.63;;;27.73;37.59
50774;BME280;36745;48.544;8.918;2022-08-23T10:39:17;97408.03;;;27.68;35.57
50774;BME280;36745;48.544;8.918;2022-08-23T10:42:33;97410.47;;;27.92;35.69
50774;BME280;36745;48.544;8.918;2022-08-23T10:45:36;97414.88;;;28.22;34.75
50774;BME280;36745;48.544;8.918;2022-08-23T10:51:49;97398.91;;;28.47;34.42
50774;BME280;36745;48.544;8.918;2022-08-23T10:55:03;97393.91;;;28.68;34.57
50774;BME280;36745;48.544;8.918;2022-08-23T10:58:21;97390.31;;;28.68;33.20
50774;BME280;36745;48.544;8.918;2022-08-23T11:01:28;97383.81;;;28.52;33.02
50774;BME280;36745;48.544;8.918;2022-08-23T11:04:55;97383.97;;;28.39;33.36
50774;BME280;36745;48.544;8.918;2022-08-23T11:08:11;97385.38;;;28.68;33.00
50774;BME280;36745;48.544;8.918;2022-08-23T11:17:59;97371.72;;;29.03;32.28
50774;BME280;36745;48.544;8.918;2022-08-23T11:24:30;97362.66;;;29.27;32.15
50774;BME280;36745;48.544;8.918;2022-08-23T11:27:37;97371.94;;;29.28;30.02
50774;BME280;36745;48.544;8.918;2022-08-23T11:30:50;97356.41;;;29.21;31.53
50774;BME280;36745;48.544;8.918;2022-08-23T11:34:04;97362.28;;;29.23;30.69
50774;BME280;36745;48.544;8.918;2022-08-23T11:43:40;97360.81;;;29.52;29.12
50774;BME280;36745;48.544;8.918;2022-08-23T11:46:59;97356.41;;;29.21;28.84
50774;BME280;36745;48.544;8.918;2022-08-23T11:57:09;97360.44;;;29.64;28.36
50774;BME280;36745;48.544;8.918;2022-08-23T12:00:23;97356.44;;;29.51;28.46
50774;BME280;36745;48.544;8.918;2022-08-23T12:03:53;97353.97;;;29.48;27.94
50774;BME280;36745;48.544;8.918;2022-08-23T12:06:56;97358.16;;;29.39;26.44
50774;BME280;36745;48.544;8.918;2022-08-23T12:10:03;97339.19;;;29.19;27.63
50774;BME280;36745;48.544;8.918;2022-08-23T12:13:53;97345.47;;;29.33;28.23
50774;BME280;36745;48.544;8.918;2022-08-23T12:16:54;97346.03;;;29.54;28.27
50774;BME280;36745;48.544;8.918;2022-08-23T12:23:16;97345.81;;;29.59;27.66
50774;BME280;36745;48.544;8.918;2022-08-23T12:29:51;97344.50;;;29.53;27.36
50774;BME280;36745;48.544;8.918;2022-08-23T12:33:08;97340.72;;;29.66;27.08
50774;BME280;36745;48.544;8.918;2022-08-23T12:36:24;97349.22;;;29.66;27.43
50774;BME280;36745;48.544;8.918;2022-08-23T12:39:38;97344.13;;;29.72;27.01
50774;BME280;36745;48.544;8.918;2022-08-23T12:42:40;97350.19;;;29.68;26.78
50774;BME280;36745;48.544;8.918;2022-08-23T12:45:44;97341.28;;;29.72;27.18
50774;BME280;36745;48.544;8.918;2022-08-23T12:48:46;97337.69;;;29.64;26.13
50774;BME280;36745;48.544;8.918;2022-08-23T12:51:53;97334.28;;;29.57;26.45
50774;BME280;36745;48.544;8.918;2022-08-23T12:54:54;97328.41;;;29.48;26.41
50774;BME280;36745;48.544;8.918;2022-08-23T12:57:58;97337.13;;;29.42;26.58
50774;BME280;36745;48.544;8.918;2022-08-23T13:01:03;97335.78;;;29.58;26.69
50774;BME280;36745;48.544;8.918;2022-08-23T13:04:11;97333.53;;;29.42;25.65
50774;BME280;36745;48.544;8.918;2022-08-23T13:07:17;97328.78;;;29.29;26.37
50774;BME280;36745;48.544;8.918;2022-08-23T13:10:20;97325.94;;;29.37;26.48
50774;BME280;36745;48.544;8.918;2022-08-23T13:13:24;97322.91;;;29.42;26.13
50774;BME280;36745;48.544;8.918;2022-08-23T13:16:42;97323.88;;;29.45;26.30
50774;BME280;36745;48.544;8.918;2022-08-23T13:19:48;97321.00;;;29.07;26.00
50774;BME280;36745;48.544;8.918;2022-08-23T13:22:58;97328.75;;;29.06;26.11
50774;BME280;36745;48.544;8.918;2022-08-23T13:26:27;97327.44;;;29.30;26.25
50774;BME280;36745;48.544;8.918;2022-08-23T13:29:28;97329.75;;;29.39;25.80
50774;BME280;36745;48.544;8.918;2022-08-23T13:32:37;97325.94;;;29.29;25.70
50774;BME280;36745;48.544;8.918;2022-08-23T13:35:44;97318.75;;;29.28;26.06
50774;BME280;36745;48.544;8.918;2022-08-23T13:38:46;97327.06;;;29.26;26.05
50774;BME280;36745;48.544;8.918;2022-08-23T13:41:47;97329.75;;;29.47;25.75
50774;BME280;36745;48.544;8.918;2022-08-23T13:44:48;97314.78;;;29.46;25.60
50774;BME280;36745;48.544;8.918;2022-08-23T13:47:52;97319.16;;;29.47;25.93
50774;BME280;36745;48.544;8.918;2022-08-23T13:51:22;97322.19;;;29.34;25.13
50774;BME280;36745;48.544;8.918;2022-08-23T13:54:26;97331.59;;;28.99;25.03
50774;BME280;36745;48.544;8.918;2022-08-23T13:57:28;97318.53;;;28.96;25.81
50774;BME280;36745;48.544;8.918;2022-08-23T14:00:31;97319.69;;;29.08;25.94
50774;BME280;36745;48.544;8.918;2022-08-23T14:03:32;97314.00;;;29.15;25.62
50774;BME280;36745;48.544;8.918;2022-08-23T14:06:33;97317.97;;;29.12;24.87
50774;BME280;36745;48.544;8.918;2022-08-23T14:09:35;97310.41;;;29.07;25.65
50774;BME280;36745;48.544;8.918;2022-08-23T14:12:37;97315.69;;;29.11;25.04
50774;BME280;36745;48.544;8.918;2022-08-23T14:15:40;97310.59;;;29.17;25.46
50774;BME280;36745;48.544;8.918;2022-08-23T14:18:44;97309.28;;;29.18;25.60
50774;BME280;36745;48.544;8.918;2022-08-23T14:21:45;97311.16;;;29.15;25.45
50774;BME280;36745;48.544;8.918;2022-08-23T14:24:46;97305.06;;;28.81;25.40
50774;BME280;36745;48.544;8.918;2022-08-23T14:27:48;97311.31;;;28.79;25.62
50774;BME280;36745;48.544;8.918;2022-08-23T14:30:49;97308.03;;;28.60;25.69
50774;BME280;36745;48.544;8.918;2022-08-23T14:33:51;97299.66;;;28.47;25.80
50774;BME280;36745;48.544;8.918;2022-08-23T14:36:52;97305.56;;;28.64;26.17
50774;BME280;36745;48.544;8.918;2022-08-23T14:39:56;97302.59;;;28.77;26.33
50774;BME280;36745;48.544;8.918;2022-08-23T14:43:00;97299.38;;;28.73;26.26
50774;BME280;36745;48.544;8.918;2022-08-23T14:46:01;97294.09;;;28.77;26.18
50774;BME280;36745;48.544;8.918;2022-08-23T14:49:02;97298.09;;;28.82;26.58
50774;BME280;36745;48.544;8.918;2022-08-23T14:52:06;97303.75;;;28.82;26.06
50774;BME280;36745;48.544;8.918;2022-08-23T14:55:10;97296.75;;;28.75;26.32
50774;BME280;36745;48.544;8.918;2022-08-23T14:58:11;97294.84;;;28.78;26.37
50774;BME280;36745;48.544;8.918;2022-08-23T15:01:12;97297.78;;;28.57;26.10
50774;BME280;36745;48.544;8.918;2022-08-23T15:04:18;97298.56;;;28.58;26.60
50774;BME280;36745;48.544;8.918;2022-08-23T15:07:22;97301.22;;;28.63;26.46
50774;BME280;36745;48.544;8.918;2022-08-23T15:10:23;97296.69;;;28.68;26.65
50774;BME280;36745;48.544;8.918;2022-08-23T15:13:25;97307.84;;;28.66;26.60
50774;BME280;36745;48.544;8.918;2022-08-23T15:16:28;97295.72;;;28.50;26.64
50774;BME280;36745;48.544;8.918;2022-08-23T15:19:32;97299.66;;;28.47;26.62
50774;BME280;36745;48.544;8.918;2022-08-23T15:22:33;97302.88;;;28.44;26.55
50774;BME280;36745;48.544;8.918;2022-08-23T15:25:39;97299.44;;;28.45;26.77
50774;BME280;36745;48.544;8.918;2022-08-23T15:28:43;97296.25;;;28.41;26.89
50774;BME280;36745;48.544;8.918;2022-08-23T15:31:44;97297.38;;;28.38;26.30
50774;BME280;36745;48.544;8.918;2022-08-23T15:34:48;97295.84;;;28.37;26.41
50774;BME280;36745;48.544;8.918;2022-08-23T15:37:49;97292.63;;;28.41;26.46
50774;BME280;36745;48.544;8.918;2022-08-23T15:40:51;97292.81;;;28.35;26.44
50774;BME280;36745;48.544;8.918;2022-08-23T15:43:53;97296.06;;;28.39;27.01
50774;BME280;36745;48.544;8.918;2022-08-23T15:46:56;97298.91;;;28.39;26.95
50774;BME280;36745;48.544;8.918;2022-08-23T15:49:58;97292.63;;;28.41;27.02
50774;BME280;36745;48.544;8.918;2022-08-23T15:53:00;97298.53;;;28.43;26.78
50774;BME280;36745;48.544;8.918;2022-08-23T15:56:08;97296.78;;;28.39;27.15
50774;BME280;36745;48.544;8.918;2022-08-23T15:59:13;97297.38;;;28.38;27.01
50774;BME280;36745;48.544;8.918;2022-08-23T16:02:15;97286.75;;;28.31;27.28
50774;BME280;36745;48.544;8.918;2022-08-23T16:05:19;97283.16;;;28.23;27.23
50774;BME280;36745;48.544;8.918;2022-08-23T16:08:29;97277.56;;;28.10;27.17
50774;BME280;36745;48.544;8.918;2022-08-23T16:11:33;97285.09;;;28.00;27.14
50774;BME280;36745;48.544;8.918;2022-08-23T16:14:35;97275.22;;;27.93;27.11
50774;BME280;36745;48.544;8.918;2022-08-23T16:17:38;97278.22;;;27.87;27.13
50774;BME280;36745;48.544;8.918;2022-08-23T16:20:42;97278.53;;;27.76;27.58
50774;BME280;36745;48.544;8.918;2022-08-23T16:23:43;97284.19;;;27.69;27.67
50774;BME280;36745;48.544;8.918;2022-08-23T16:26:48;97284.50;;;27.65;27.63
50774;BME280;36745;48.544;8.918;2022-08-23T16:29:49;97278.47;;;27.61;27.49
50774;BME280;36745;48.544;8.918;2022-08-23T16:32:50;97280.50;;;27.53;27.78
50774;BME280;36745;48.544;8.918;2022-08-23T16:35:54;97275.28;;;27.44;27.69
50774;BME280;36745;48.544;8.918;2022-08-23T16:38:55;97283.53;;;27.34;27.80
50774;BME280;36745;48.544;8.918;2022-08-23T16:42:00;97288.03;;;27.30;27.86
50774;BME280;36745;48.544;8.918;2022-08-23T16:45:04;97289.63;;;27.18;28.02
50774;BME280;36745;48.544;8.918;2022-08-23T16:48:05;97288.09;;;27.17;28.19
50774;BME280;36745;48.544;8.918;2022-08-23T16:51:06;97287.16;;;27.14;27.92
50774;BME280;36745;48.544;8.918;2022-08-23T16:54:10;97294.03;;;27.05;28.52
50774;BME280;36745;48.544;8.918;2022-08-23T16:57:11;97292.38;;;27.10;28.39
50774;BME280;36745;48.544;8.918;2022-08-23T17:00:16;97300.13;;;27.09;28.44
50774;BME280;36745;48.544;8.918;2022-08-23T17:03:18;97294.63;;;27.04;28.29
50774;BME280;36745;48.544;8.918;2022-08-23T17:06:18;97305.19;;;27.03;28.78
50774;BME280;36745;48.544;8.918;2022-08-23T17:09:25;97296.47;;;27.01;28.33
50774;BME280;36745;48.544;8.918;2022-08-23T17:12:26;97298.91;;;26.97;28.60
50774;BME280;36745;48.544;8.918;2022-08-23T17:15:31;97301.63;;;26.90;28.91
50774;BME280;36745;48.544;8.918;2022-08-23T17:18:36;97298.91;;;26.84;28.93
50774;BME280;36745;48.544;8.918;2022-08-23T17:21:37;97303.75;;;26.76;29.18
50774;BME280;36745;48.544;8.918;2022-08-23T17:24:39;97297.25;;;26.68;29.41
50774;BME280;36745;48.544;8.918;2022-08-23T17:27:44;97306.97;;;26.59;29.32
50774;BME280;36745;48.544;8.918;2022-08-23T17:30:45;97305.03;;;26.54;29.60